sensor_id;sensor_type;location;lat;lon;timestamp;temperature;humidity
53282;DHT22;39167;52.794;6.892;2023-04-15T00:01:24;8.50;99.90
53282;DHT22;39167;52.794;6.892;2023-04-15T00:03:54;8.80;99.90
53282;DHT22;39167;52.794;6.892;2023-04-15T00:06:20;8.50;99.90
53282;DHT22;39167;52.794;6.892;2023-04-15T00:08:47;8.40;99.90
53282;DHT22;39167;52.794;6.892;2023-04-15T00:11:13;8.40;99.90
53282;DHT22;39167;52.794;6.892;2023-04-15T00:13:39;8.70;99.90
53282;DHT22;39167;52.794;6.892;2023-04-15T00:16:06;8.40;99.90
53282;DHT22;39167;52.794;6.892;2023-04-15T00:18:33;8.30;99.90
53282;DHT22;39167;52.794;6.892;2023-04-15T00:20:59;8.30;99.90
53282;DHT22;39167;52.794;6.892;2023-04-15T00:23:25;8.30;99.90
53282;DHT22;39167;52.794;6.892;2023-04-15T00:25:51;8.20;99.90
53282;DHT22;39167;52.794;6.892;2023-04-15T00:28:17;8.20;99.90
53282;DHT22;39167;52.794;6.892;2023-04-15T00:30:43;8.30;99.90
53282;DHT22;39167;52.794;6.892;2023-04-15T00:33:09;8.10;99.90
53282;DHT22;39167;52.794;6.892;2023-04-15T00:35:35;8.10;99.90
53282;DHT22;39167;52.794;6.892;2023-04-15T00:38:05;8.00;99.90
53282;DHT22;39167;52.794;6.892;2023-04-15T00:40:31;8.00;99.90
53282;DHT22;39167;52.794;6.892;2023-04-15T00:42:57;7.90;99.90
53282;DHT22;39167;52.794;6.892;2023-04-15T00:45:24;7.90;99.90
53282;DHT22;39167;52.794;6.892;2023-04-15T00:47:50;7.90;99.90
53282;DHT22;39167;52.794;6.892;2023-04-15T00:50:15;7.90;99.90
53282;DHT22;39167;52.794;6.892;2023-04-15T00:52:41;7.90;99.90
53282;DHT22;39167;52.794;6.892;2023-04-15T00:55:07;7.90;99.90
53282;DHT22;39167;52.794;6.892;2023-04-15T00:57:34;7.90;99.90
53282;DHT22;39167;52.794;6.892;2023-04-15T01:00:01;7.90;99.90
53282;DHT22;39167;52.794;6.892;2023-04-15T01:02:28;7.90;99.90
53282;DHT22;39167;52.794;6.892;2023-04-15T01:04:55;7.80;99.90
53282;DHT22;39167;52.794;6.892;2023-04-15T01:07:21;7.80;99.90
53282;DHT22;39167;52.794;6.892;2023-04-15T01:09:46;7.80;99.90
53282;DHT22;39167;52.794;6.892;2023-04-15T01:12:13;7.70;99.90
53282;DHT22;39167;52.794;6.892;2023-04-15T01:14:41;7.70;99.90
53282;DHT22;39167;52.794;6.892;2023-04-15T01:17:06;7.70;99.90
53282;DHT22;39167;52.794;6.892;2023-04-15T01:19:33;7.70;99.90
53282;DHT22;39167;52.794;6.892;2023-04-15T01:22:02;7.60;99.90
53282;DHT22;39167;52.794;6.892;2023-04-15T01:24:29;7.60;99.90
53282;DHT22;39167;52.794;6.892;2023-04-15T01:26:57;7.60;99.90
53282;DHT22;39167;52.794;6.892;2023-04-15T01:29:23;7.60;99.90
53282;DHT22;39167;52.794;6.892;2023-04-15T01:31:53;7.60;99.90
53282;DHT22;39167;52.794;6.892;2023-04-15T01:34:19;7.60;99.90
53282;DHT22;39167;52.794;6.892;2023-04-15T01:36:45;7.60;99.90
53282;DHT22;39167;52.794;6.892;2023-04-15T01:39:11;7.50;99.90
53282;DHT22;39167;52.794;6.892;2023-04-15T01:41:38;7.50;99.90
53282;DHT22;39167;52.794;6.892;2023-04-15T01:44:04;7.50;99.90
53282;DHT22;39167;52.794;6.892;2023-04-15T01:46:31;7.50;99.90
53282;DHT22;39167;52.794;6.892;2023-04-15T01:48:57;7.50;99.90
53282;DHT22;39167;52.794;6.892;2023-04-15T01:51:23;7.40;99.90
53282;DHT22;39167;52.794;6.892;2023-04-15T01:53:48;7.40;99.90
53282;DHT22;39167;52.794;6.892;2023-04-15T01:56:14;7.40;99.90
53282;DHT22;39167;52.794;6.892;2023-04-15T01:58:40;7.30;99.90
53282;DHT22;39167;52.794;6.892;2023-04-15T02:01:06;7.30;99.90
53282;DHT22;39167;52.794;6.892;2023-04-15T02:03:31;7.30;99.90
53282;DHT22;39167;52.794;6.892;2023-04-15T02:05:58;7.20;99.90
53282;DHT22;39167;52.794;6.892;2023-04-15T02:08:23;7.20;99.90
53282;DHT22;39167;52.794;6.892;2023-04-15T02:10:49;7.10;99.90
53282;DHT22;39167;52.794;6.892;2023-04-15T02:13:15;7.10;99.90
53282;DHT22;39167;52.794;6.892;2023-04-15T02:15:48;7.10;99.90
53282;DHT22;39167;52.794;6.892;2023-04-15T02:18:15;7.10;99.90
53282;DHT22;39167;52.794;6.892;2023-04-15T02:20:41;7.10;99.90
53282;DHT22;39167;52.794;6.892;2023-04-15T02:23:08;7.00;99.90
53282;DHT22;39167;52.794;6.892;2023-04-15T02:25:34;7.00;99.90
53282;DHT22;39167;52.794;6.892;2023-04-15T02:28:00;7.00;99.90
53282;DHT22;39167;52.794;6.892;2023-04-15T02:30:25;7.00;99.90
53282;DHT22;39167;52.794;6.892;2023-04-15T02:32:51;6.90;99.90
53282;DHT22;39167;52.794;6.892;2023-04-15T02:35:17;6.90;99.90
53282;DHT22;39167;52.794;6.892;2023-04-15T02:37:45;6.90;99.90
53282;DHT22;39167;52.794;6.892;2023-04-15T02:40:11;6.90;99.90
53282;DHT22;39167;52.794;6.892;2023-04-15T02:42:40;6.80;99.90
53282;DHT22;39167;52.794;6.892;2023-04-15T02:45:07;7.40;99.90
53282;DHT22;39167;52.794;6.892;2023-04-15T02:47:33;6.80;99.90
53282;DHT22;39167;52.794;6.892;2023-04-15T02:50:03;6.80;99.90
53282;DHT22;39167;52.794;6.892;2023-04-15T02:52:29;6.80;99.90
53282;DHT22;39167;52.794;6.892;2023-04-15T02:54:55;6.70;99.90
53282;DHT22;39167;52.794;6.892;2023-04-15T02:57:26;6.60;99.90
53282;DHT22;39167;52.794;6.892;2023-04-15T02:59:53;6.60;99.90
53282;DHT22;39167;52.794;6.892;2023-04-15T03:02:19;6.60;99.90
53282;DHT22;39167;52.794;6.892;2023-04-15T03:04:44;6.50;99.90
53282;DHT22;39167;52.794;6.892;2023-04-15T03:07:10;6.50;99.90
53282;DHT22;39167;52.794;6.892;2023-04-15T03:09:36;6.50;99.90
53282;DHT22;39167;52.794;6.892;2023-04-15T03:12:04;6.40;99.90
53282;DHT22;39167;52.794;6.892;2023-04-15T03:14:29;6.40;99.90
53282;DHT22;39167;52.794;6.892;2023-04-15T03:16:55;6.50;99.90
53282;DHT22;39167;52.794;6.892;2023-04-15T03:19:21;6.40;99.90
53282;DHT22;39167;52.794;6.892;2023-04-15T03:21:47;6.40;99.90
53282;DHT22;39167;52.794;6.892;2023-04-15T03:24:12;6.40;99.90
53282;DHT22;39167;52.794;6.892;2023-04-15T03:26:38;6.40;99.90
53282;DHT22;39167;52.794;6.892;2023-04-15T03:29:04;6.30;99.90
53282;DHT22;39167;52.794;6.892;2023-04-15T03:31:30;6.30;99.90
53282;DHT22;39167;52.794;6.892;2023-04-15T03:33:55;6.30;99.90
53282;DHT22;39167;52.794;6.892;2023-04-15T03:36:21;6.30;99.90
53282;DHT22;39167;52.794;6.892;2023-04-15T03:38:47;6.20;99.90
53282;DHT22;39167;52.794;6.892;2023-04-15T03:41:13;6.20;99.90
53282;DHT22;39167;52.794;6.892;2023-04-15T03:43:39;6.20;99.90
53282;DHT22;39167;52.794;6.892;2023-04-15T03:46:05;6.20;99.90
53282;DHT22;39167;52.794;6.892;2023-04-15T03:48:31;6.50;99.90
53282;DHT22;39167;52.794;6.892;2023-04-15T03:50:57;6.10;99.90
53282;DHT22;39167;52.794;6.892;2023-04-15T03:53:22;6.70;99.90
53282;DHT22;39167;52.794;6.892;2023-04-15T03:55:48;6.10;99.90
53282;DHT22;39167;52.794;6.892;2023-04-15T03:58:14;6.50;99.90
53282;DHT22;39167;52.794;6.892;2023-04-15T04:00:39;6.00;99.90
53282;DHT22;39167;52.794;6.892;2023-04-15T04:03:06;6.50;99.90
53282;DHT22;39167;52.794;6.892;2023-04-15T04:05:31;6.10;99.90
53282;DHT22;39167;52.794;6.892;2023-04-15T04:07:57;5.90;99.90
53282;DHT22;39167;52.794;6.892;2023-04-15T04:10:23;5.90;99.90
53282;DHT22;39167;52.794;6.892;2023-04-15T04:12:48;5.90;99.90
53282;DHT22;39167;52.794;6.892;2023-04-15T04:15:14;5.80;99.90
53282;DHT22;39167;52.794;6.892;2023-04-15T04:17:40;5.80;99.90
53282;DHT22;39167;52.794;6.892;2023-04-15T04:20:06;5.70;99.90
53282;DHT22;39167;52.794;6.892;2023-04-15T04:22:39;5.70;99.90
53282;DHT22;39167;52.794;6.892;2023-04-15T04:25:05;5.70;99.90
53282;DHT22;39167;52.794;6.892;2023-04-15T04:27:33;5.60;99.90
53282;DHT22;39167;52.794;6.892;2023-04-15T04:29:59;5.60;99.90
53282;DHT22;39167;52.794;6.892;2023-04-15T04:32:25;5.80;99.90
53282;DHT22;39167;52.794;6.892;2023-04-15T04:34:50;5.60;99.90
53282;DHT22;39167;52.794;6.892;2023-04-15T04:37:16;6.10;99.90
53282;DHT22;39167;52.794;6.892;2023-04-15T04:39:42;5.50;99.90
53282;DHT22;39167;52.794;6.892;2023-04-15T04:42:08;5.50;99.90
53282;DHT22;39167;52.794;6.892;2023-04-15T04:44:33;5.50;99.90
53282;DHT22;39167;52.794;6.892;2023-04-15T04:46:59;5.50;99.90
53282;DHT22;39167;52.794;6.892;2023-04-15T04:49:25;5.50;99.90
53282;DHT22;39167;52.794;6.892;2023-04-15T04:51:51;5.40;99.90
53282;DHT22;39167;52.794;6.892;2023-04-15T04:54:17;5.40;99.90
53282;DHT22;39167;52.794;6.892;2023-04-15T04:56:42;5.40;99.90
53282;DHT22;39167;52.794;6.892;2023-04-15T04:59:08;5.30;99.90
53282;DHT22;39167;52.794;6.892;2023-04-15T05:01:34;5.30;99.90
53282;DHT22;39167;52.794;6.892;2023-04-15T05:04:00;5.30;99.90
53282;DHT22;39167;52.794;6.892;2023-04-15T05:06:26;5.20;99.90
53282;DHT22;39167;52.794;6.892;2023-04-15T05:08:52;5.20;99.90
53282;DHT22;39167;52.794;6.892;2023-04-15T05:11:17;5.20;99.90
53282;DHT22;39167;52.794;6.892;2023-04-15T05:13:43;5.20;99.90
53282;DHT22;39167;52.794;6.892;2023-04-15T05:16:09;6.00;99.90
53282;DHT22;39167;52.794;6.892;2023-04-15T05:18:34;5.40;99.90
53282;DHT22;39167;52.794;6.892;2023-04-15T05:21:01;5.40;99.90
53282;DHT22;39167;52.794;6.892;2023-04-15T05:23:27;5.30;99.90
53282;DHT22;39167;52.794;6.892;2023-04-15T05:25:52;5.20;99.90
53282;DHT22;39167;52.794;6.892;2023-04-15T05:28:18;5.20;99.90
53282;DHT22;39167;52.794;6.892;2023-04-15T05:30:44;5.20;99.90
53282;DHT22;39167;52.794;6.892;2023-04-15T05:33:10;5.70;99.90
53282;DHT22;39167;52.794;6.892;2023-04-15T05:35:36;5.30;99.90
53282;DHT22;39167;52.794;6.892;2023-04-15T05:38:02;5.40;99.90
53282;DHT22;39167;52.794;6.892;2023-04-15T05:40:29;5.30;99.90
53282;DHT22;39167;52.794;6.892;2023-04-15T05:42:56;5.30;99.90
53282;DHT22;39167;52.794;6.892;2023-04-15T05:45:21;5.40;99.90
53282;DHT22;39167;52.794;6.892;2023-04-15T05:47:47;5.40;99.90
53282;DHT22;39167;52.794;6.892;2023-04-15T05:50:15;5.30;99.90
53282;DHT22;39167;52.794;6.892;2023-04-15T05:52:41;5.40;99.90
53282;DHT22;39167;52.794;6.892;2023-04-15T05:55:07;5.40;99.90
53282;DHT22;39167;52.794;6.892;2023-04-15T05:57:33;5.40;99.90
53282;DHT22;39167;52.794;6.892;2023-04-15T05:59:59;5.60;99.90
53282;DHT22;39167;52.794;6.892;2023-04-15T06:02:24;6.50;99.90
53282;DHT22;39167;52.794;6.892;2023-04-15T06:04:50;5.50;99.90
53282;DHT22;39167;52.794;6.892;2023-04-15T06:07:16;5.50;99.90
53282;DHT22;39167;52.794;6.892;2023-04-15T06:09:42;5.80;99.90
53282;DHT22;39167;52.794;6.892;2023-04-15T06:12:08;6.10;99.90
53282;DHT22;39167;52.794;6.892;2023-04-15T06:14:39;5.70;99.90
53282;DHT22;39167;52.794;6.892;2023-04-15T06:17:05;5.90;99.90
53282;DHT22;39167;52.794;6.892;2023-04-15T06:19:31;6.40;99.90
53282;DHT22;39167;52.794;6.892;2023-04-15T06:21:57;5.80;99.90
53282;DHT22;39167;52.794;6.892;2023-04-15T06:24:23;5.90;99.90
53282;DHT22;39167;52.794;6.892;2023-04-15T06:26:49;6.20;99.90
53282;DHT22;39167;52.794;6.892;2023-04-15T06:29:15;5.90;99.90
53282;DHT22;39167;52.794;6.892;2023-04-15T06:31:41;6.00;99.90
53282;DHT22;39167;52.794;6.892;2023-04-15T06:34:07;6.00;99.90
53282;DHT22;39167;52.794;6.892;2023-04-15T06:36:32;6.00;99.90
53282;DHT22;39167;52.794;6.892;2023-04-15T06:38:58;6.00;99.90
53282;DHT22;39167;52.794;6.892;2023-04-15T06:41:24;6.10;99.90
53282;DHT22;39167;52.794;6.892;2023-04-15T06:43:50;6.10;99.90
53282;DHT22;39167;52.794;6.892;2023-04-15T06:46:15;6.10;99.90
53282;DHT22;39167;52.794;6.892;2023-04-15T06:48:41;6.20;99.90
53282;DHT22;39167;52.794;6.892;2023-04-15T06:51:07;6.20;99.90
53282;DHT22;39167;52.794;6.892;2023-04-15T06:53:33;6.90;99.90
53282;DHT22;39167;52.794;6.892;2023-04-15T06:56:00;6.30;99.90
53282;DHT22;39167;52.794;6.892;2023-04-15T06:58:25;6.40;99.90
53282;DHT22;39167;52.794;6.892;2023-04-15T07:00:51;6.40;99.90
53282;DHT22;39167;52.794;6.892;2023-04-15T07:03:17;6.40;99.90
53282;DHT22;39167;52.794;6.892;2023-04-15T07:05:43;6.50;99.90
53282;DHT22;39167;52.794;6.892;2023-04-15T07:08:09;6.90;99.90
53282;DHT22;39167;52.794;6.892;2023-04-15T07:10:35;7.20;99.90
53282;DHT22;39167;52.794;6.892;2023-04-15T07:13:01;6.60;99.90
53282;DHT22;39167;52.794;6.892;2023-04-15T07:15:27;6.60;99.90
53282;DHT22;39167;52.794;6.892;2023-04-15T07:17:53;6.60;99.90
53282;DHT22;39167;52.794;6.892;2023-04-15T07:20:18;6.70;99.90
53282;DHT22;39167;52.794;6.892;2023-04-15T07:22:44;5.90;99.90
53282;DHT22;39167;52.794;6.892;2023-04-15T07:25:10;6.80;99.90
53282;DHT22;39167;52.794;6.892;2023-04-15T07:27:36;7.60;99.90
53282;DHT22;39167;52.794;6.892;2023-04-15T07:30:02;7.00;99.90
53282;DHT22;39167;52.794;6.892;2023-04-15T07:32:27;7.00;99.90
53282;DHT22;39167;52.794;6.892;2023-04-15T07:34:53;7.10;99.90
53282;DHT22;39167;52.794;6.892;2023-04-15T07:37:19;7.10;99.90
53282;DHT22;39167;52.794;6.892;2023-04-15T07:39:45;7.20;99.90
53282;DHT22;39167;52.794;6.892;2023-04-15T07:42:10;7.20;99.90
53282;DHT22;39167;52.794;6.892;2023-04-15T07:44:36;7.30;99.90
53282;DHT22;39167;52.794;6.892;2023-04-15T07:47:02;7.40;99.90
53282;DHT22;39167;52.794;6.892;2023-04-15T07:49:28;7.40;99.90
53282;DHT22;39167;52.794;6.892;2023-04-15T07:51:54;7.50;99.90
53282;DHT22;39167;52.794;6.892;2023-04-15T07:54:22;7.60;99.90
53282;DHT22;39167;52.794;6.892;2023-04-15T07:56:47;7.60;99.90
53282;DHT22;39167;52.794;6.892;2023-04-15T07:59:15;7.70;99.90
53282;DHT22;39167;52.794;6.892;2023-04-15T08:01:42;7.80;99.90
53282;DHT22;39167;52.794;6.892;2023-04-15T08:04:08;7.90;99.90
53282;DHT22;39167;52.794;6.892;2023-04-15T08:06:34;8.40;99.90
53282;DHT22;39167;52.794;6.892;2023-04-15T08:09:01;7.90;99.90
53282;DHT22;39167;52.794;6.892;2023-04-15T08:11:27;8.00;99.90
53282;DHT22;39167;52.794;6.892;2023-04-15T08:13:52;7.30;99.90
53282;DHT22;39167;52.794;6.892;2023-04-15T08:16:20;8.10;99.90
53282;DHT22;39167;52.794;6.892;2023-04-15T08:18:47;8.20;99.90
53282;DHT22;39167;52.794;6.892;2023-04-15T08:21:14;8.20;99.90
53282;DHT22;39167;52.794;6.892;2023-04-15T08:23:40;8.20;99.90
53282;DHT22;39167;52.794;6.892;2023-04-15T08:26:07;8.30;99.90
53282;DHT22;39167;52.794;6.892;2023-04-15T08:28:33;9.10;99.90
53282;DHT22;39167;52.794;6.892;2023-04-15T08:30:59;8.30;99.90
53282;DHT22;39167;52.794;6.892;2023-04-15T08:33:25;8.40;99.90
53282;DHT22;39167;52.794;6.892;2023-04-15T08:35:50;8.90;99.90
53282;DHT22;39167;52.794;6.892;2023-04-15T08:38:16;8.50;99.90
53282;DHT22;39167;52.794;6.892;2023-04-15T08:40:44;8.60;99.90
53282;DHT22;39167;52.794;6.892;2023-04-15T08:43:19;8.80;99.90
53282;DHT22;39167;52.794;6.892;2023-04-15T08:45:47;8.70;99.90
53282;DHT22;39167;52.794;6.892;2023-04-15T08:48:16;8.80;99.90
53282;DHT22;39167;52.794;6.892;2023-04-15T08:50:42;8.90;99.90
53282;DHT22;39167;52.794;6.892;2023-04-15T08:53:09;8.90;99.90
53282;DHT22;39167;52.794;6.892;2023-04-15T08:55:35;8.90;99.90
53282;DHT22;39167;52.794;6.892;2023-04-15T08:58:05;8.90;99.90
53282;DHT22;39167;52.794;6.892;2023-04-15T09:00:32;8.90;99.90
53282;DHT22;39167;52.794;6.892;2023-04-15T09:02:58;8.80;99.90
53282;DHT22;39167;52.794;6.892;2023-04-15T09:05:24;8.80;99.90
53282;DHT22;39167;52.794;6.892;2023-04-15T09:07:51;8.80;99.90
53282;DHT22;39167;52.794;6.892;2023-04-15T09:10:16;8.80;99.90
53282;DHT22;39167;52.794;6.892;2023-04-15T09:12:43;8.80;99.90
53282;DHT22;39167;52.794;6.892;2023-04-15T09:15:10;8.80;99.90
53282;DHT22;39167;52.794;6.892;2023-04-15T09:17:44;8.80;99.90
53282;DHT22;39167;52.794;6.892;2023-04-15T09:20:12;8.80;99.90
53282;DHT22;39167;52.794;6.892;2023-04-15T09:22:40;8.90;99.90
53282;DHT22;39167;52.794;6.892;2023-04-15T09:27:54;8.90;99.90
53282;DHT22;39167;52.794;6.892;2023-04-15T09:30:20;8.90;99.90
53282;DHT22;39167;52.794;6.892;2023-04-15T09:32:56;8.90;99.90
53282;DHT22;39167;52.794;6.892;2023-04-15T09:35:23;8.90;99.90
53282;DHT22;39167;52.794;6.892;2023-04-15T09:37:50;8.80;99.90
53282;DHT22;39167;52.794;6.892;2023-04-15T09:42:57;8.90;99.90
53282;DHT22;39167;52.794;6.892;2023-04-15T09:45:23;9.00;99.90
53282;DHT22;39167;52.794;6.892;2023-04-15T09:47:50;9.00;99.90
53282;DHT22;39167;52.794;6.892;2023-04-15T09:50:18;9.00;99.90
53282;DHT22;39167;52.794;6.892;2023-04-15T09:52:44;9.10;99.90
53282;DHT22;39167;52.794;6.892;2023-04-15T09:55:10;9.10;99.90
53282;DHT22;39167;52.794;6.892;2023-04-15T09:57:38;9.10;99.90
53282;DHT22;39167;52.794;6.892;2023-04-15T10:00:07;9.00;99.90
53282;DHT22;39167;52.794;6.892;2023-04-15T10:02:34;9.00;99.90
53282;DHT22;39167;52.794;6.892;2023-04-15T10:05:01;9.00;99.90
53282;DHT22;39167;52.794;6.892;2023-04-15T10:07:27;9.00;99.90
53282;DHT22;39167;52.794;6.892;2023-04-15T10:09:54;9.00;99.90
53282;DHT22;39167;52.794;6.892;2023-04-15T10:12:21;9.00;99.90
53282;DHT22;39167;52.794;6.892;2023-04-15T10:14:59;9.00;99.90
53282;DHT22;39167;52.794;6.892;2023-04-15T10:17:27;9.00;99.90
53282;DHT22;39167;52.794;6.892;2023-04-15T10:20:00;8.90;99.90
53282;DHT22;39167;52.794;6.892;2023-04-15T10:22:27;9.00;99.90
53282;DHT22;39167;52.794;6.892;2023-04-15T10:24:57;9.00;99.90
53282;DHT22;39167;52.794;6.892;2023-04-15T10:27:25;9.00;99.90
53282;DHT22;39167;52.794;6.892;2023-04-15T10:29:51;9.10;99.90
53282;DHT22;39167;52.794;6.892;2023-04-15T10:32:19;9.00;99.90
53282;DHT22;39167;52.794;6.892;2023-04-15T10:34:47;9.10;99.90
53282;DHT22;39167;52.794;6.892;2023-04-15T10:37:20;9.10;99.90
53282;DHT22;39167;52.794;6.892;2023-04-15T10:39:46;9.10;99.90
53282;DHT22;39167;52.794;6.892;2023-04-15T10:42:17;9.10;99.90
53282;DHT22;39167;52.794;6.892;2023-04-15T10:44:47;9.10;99.90
53282;DHT22;39167;52.794;6.892;2023-04-15T10:47:15;9.10;99.90
53282;DHT22;39167;52.794;6.892;2023-04-15T10:50:03;9.10;99.90
53282;DHT22;39167;52.794;6.892;2023-04-15T10:52:31;9.10;99.90
53282;DHT22;39167;52.794;6.892;2023-04-15T10:55:13;9.20;99.90
53282;DHT22;39167;52.794;6.892;2023-04-15T10:57:42;9.20;99.90
53282;DHT22;39167;52.794;6.892;2023-04-15T11:05:05;9.20;99.90
53282;DHT22;39167;52.794;6.892;2023-04-15T11:07:49;9.20;99.90
53282;DHT22;39167;52.794;6.892;2023-04-15T11:13:46;9.20;99.90
53282;DHT22;39167;52.794;6.892;2023-04-15T11:18:13;9.20;99.90
53282;DHT22;39167;52.794;6.892;2023-04-15T11:23:42;9.20;99.90
53282;DHT22;39167;52.794;6.892;2023-04-15T11:26:12;9.20;99.90
53282;DHT22;39167;52.794;6.892;2023-04-15T11:28:44;9.20;99.90
53282;DHT22;39167;52.794;6.892;2023-04-15T11:31:17;9.20;99.90
53282;DHT22;39167;52.794;6.892;2023-04-15T11:33:56;9.20;99.90
53282;DHT22;39167;52.794;6.892;2023-04-15T11:36:27;9.30;99.90
53282;DHT22;39167;52.794;6.892;2023-04-15T11:38:53;9.30;99.90
53282;DHT22;39167;52.794;6.892;2023-04-15T11:41:22;9.30;99.90
53282;DHT22;39167;52.794;6.892;2023-04-15T11:43:48;9.30;99.90
53282;DHT22;39167;52.794;6.892;2023-04-15T11:46:14;9.30;99.90
53282;DHT22;39167;52.794;6.892;2023-04-15T11:48:45;9.30;99.90
53282;DHT22;39167;52.794;6.892;2023-04-15T11:51:12;9.30;99.90
53282;DHT22;39167;52.794;6.892;2023-04-15T11:53:47;9.20;99.90
53282;DHT22;39167;52.794;6.892;2023-04-15T11:56:18;9.20;99.90
53282;DHT22;39167;52.794;6.892;2023-04-15T11:58:44;9.30;99.90
53282;DHT22;39167;52.794;6.892;2023-04-15T12:01:11;9.30;99.90
53282;DHT22;39167;52.794;6.892;2023-04-15T12:03:39;9.30;99.90
53282;DHT22;39167;52.794;6.892;2023-04-15T12:06:15;9.30;99.90
53282;DHT22;39167;52.794;6.892;2023-04-15T12:11:41;9.40;99.90
53282;DHT22;39167;52.794;6.892;2023-04-15T12:14:28;9.40;99.90
53282;DHT22;39167;52.794;6.892;2023-04-15T12:16:59;9.50;99.90
53282;DHT22;39167;52.794;6.892;2023-04-15T12:19:33;9.50;99.90
53282;DHT22;39167;52.794;6.892;2023-04-15T12:22:17;9.50;99.90
53282;DHT22;39167;52.794;6.892;2023-04-15T12:24:45;9.50;99.90
53282;DHT22;39167;52.794;6.892;2023-04-15T12:27:15;9.40;99.90
53282;DHT22;39167;52.794;6.892;2023-04-15T12:29:42;9.40;99.90
53282;DHT22;39167;52.794;6.892;2023-04-15T12:32:09;9.40;99.90
53282;DHT22;39167;52.794;6.892;2023-04-15T12:37:03;9.30;99.90
53282;DHT22;39167;52.794;6.892;2023-04-15T12:39:31;9.20;99.90
53282;DHT22;39167;52.794;6.892;2023-04-15T12:41:59;9.20;99.90
53282;DHT22;39167;52.794;6.892;2023-04-15T12:44:26;9.20;99.90
53282;DHT22;39167;52.794;6.892;2023-04-15T12:46:52;9.10;99.90
53282;DHT22;39167;52.794;6.892;2023-04-15T12:49:20;9.10;99.90
53282;DHT22;39167;52.794;6.892;2023-04-15T12:51:48;9.10;99.90
53282;DHT22;39167;52.794;6.892;2023-04-15T12:54:16;9.10;99.90
53282;DHT22;39167;52.794;6.892;2023-04-15T12:56:42;9.10;99.90
53282;DHT22;39167;52.794;6.892;2023-04-15T12:59:08;9.10;99.90
53282;DHT22;39167;52.794;6.892;2023-04-15T13:01:34;9.00;99.90
53282;DHT22;39167;52.794;6.892;2023-04-15T13:04:00;9.00;99.90
53282;DHT22;39167;52.794;6.892;2023-04-15T13:06:26;8.90;99.90
53282;DHT22;39167;52.794;6.892;2023-04-15T13:08:53;8.90;99.90
53282;DHT22;39167;52.794;6.892;2023-04-15T13:11:23;8.90;99.90
53282;DHT22;39167;52.794;6.892;2023-04-15T13:13:49;8.80;99.90
53282;DHT22;39167;52.794;6.892;2023-04-15T13:16:17;8.80;99.90
53282;DHT22;39167;52.794;6.892;2023-04-15T13:18:43;8.80;99.90
53282;DHT22;39167;52.794;6.892;2023-04-15T13:21:11;8.80;99.90
53282;DHT22;39167;52.794;6.892;2023-04-15T13:23:37;8.80;99.90
53282;DHT22;39167;52.794;6.892;2023-04-15T13:26:03;8.80;99.90
53282;DHT22;39167;52.794;6.892;2023-04-15T13:28:29;8.70;99.90
53282;DHT22;39167;52.794;6.892;2023-04-15T13:30:54;8.80;99.90
53282;DHT22;39167;52.794;6.892;2023-04-15T13:33:20;8.70;99.90
53282;DHT22;39167;52.794;6.892;2023-04-15T13:35:46;8.60;99.90
53282;DHT22;39167;52.794;6.892;2023-04-15T13:38:11;8.70;99.90
53282;DHT22;39167;52.794;6.892;2023-04-15T13:40:37;9.10;99.90
53282;DHT22;39167;52.794;6.892;2023-04-15T13:43:03;8.60;99.90
53282;DHT22;39167;52.794;6.892;2023-04-15T13:45:29;9.00;99.90
53282;DHT22;39167;52.794;6.892;2023-04-15T13:47:55;8.60;99.90
53282;DHT22;39167;52.794;6.892;2023-04-15T13:50:22;8.60;99.90
53282;DHT22;39167;52.794;6.892;2023-04-15T13:52:47;8.60;99.90
53282;DHT22;39167;52.794;6.892;2023-04-15T13:55:13;8.60;99.90
53282;DHT22;39167;52.794;6.892;2023-04-15T13:57:39;8.50;99.90
53282;DHT22;39167;52.794;6.892;2023-04-15T14:00:05;8.50;99.90
53282;DHT22;39167;52.794;6.892;2023-04-15T14:02:31;8.50;99.90
53282;DHT22;39167;52.794;6.892;2023-04-15T14:04:57;8.70;99.90
53282;DHT22;39167;52.794;6.892;2023-04-15T14:07:22;8.50;99.90
53282;DHT22;39167;52.794;6.892;2023-04-15T14:09:48;8.50;99.90
53282;DHT22;39167;52.794;6.892;2023-04-15T14:12:14;8.50;99.90
53282;DHT22;39167;52.794;6.892;2023-04-15T14:14:40;8.40;99.90
53282;DHT22;39167;52.794;6.892;2023-04-15T14:17:06;8.40;99.90
53282;DHT22;39167;52.794;6.892;2023-04-15T14:19:33;8.40;99.90
53282;DHT22;39167;52.794;6.892;2023-04-15T14:21:59;7.80;99.90
53282;DHT22;39167;52.794;6.892;2023-04-15T14:24:25;8.40;99.90
53282;DHT22;39167;52.794;6.892;2023-04-15T14:26:51;8.30;99.90
53282;DHT22;39167;52.794;6.892;2023-04-15T14:29:17;8.30;99.90
53282;DHT22;39167;52.794;6.892;2023-04-15T14:31:42;8.30;99.90
53282;DHT22;39167;52.794;6.892;2023-04-15T14:34:10;8.30;99.90
53282;DHT22;39167;52.794;6.892;2023-04-15T14:36:35;8.30;99.90
53282;DHT22;39167;52.794;6.892;2023-04-15T14:39:02;8.30;99.90
53282;DHT22;39167;52.794;6.892;2023-04-15T14:41:28;8.30;99.90
53282;DHT22;39167;52.794;6.892;2023-04-15T14:43:54;8.30;99.90
53282;DHT22;39167;52.794;6.892;2023-04-15T14:46:21;8.30;99.90
53282;DHT22;39167;52.794;6.892;2023-04-15T14:48:48;8.20;99.90
53282;DHT22;39167;52.794;6.892;2023-04-15T14:51:14;8.50;99.90
53282;DHT22;39167;52.794;6.892;2023-04-15T14:53:40;8.10;99.90
53282;DHT22;39167;52.794;6.892;2023-04-15T14:56:06;8.10;99.90
53282;DHT22;39167;52.794;6.892;2023-04-15T14:58:32;8.10;99.90
53282;DHT22;39167;52.794;6.892;2023-04-15T15:00:58;8.10;99.90
53282;DHT22;39167;52.794;6.892;2023-04-15T15:03:24;8.10;99.90
53282;DHT22;39167;52.794;6.892;2023-04-15T15:05:50;8.10;99.90
53282;DHT22;39167;52.794;6.892;2023-04-15T15:08:16;8.10;99.90
53282;DHT22;39167;52.794;6.892;2023-04-15T15:10:41;8.10;99.90
53282;DHT22;39167;52.794;6.892;2023-04-15T15:13:08;8.10;99.90
53282;DHT22;39167;52.794;6.892;2023-04-15T15:15:36;8.10;99.90
53282;DHT22;39167;52.794;6.892;2023-04-15T15:18:02;8.10;99.90
53282;DHT22;39167;52.794;6.892;2023-04-15T15:20:29;8.10;99.90
53282;DHT22;39167;52.794;6.892;2023-04-15T15:22:55;8.00;99.90
53282;DHT22;39167;52.794;6.892;2023-04-15T15:25:21;8.10;99.90
53282;DHT22;39167;52.794;6.892;2023-04-15T15:27:47;8.00;99.90
53282;DHT22;39167;52.794;6.892;2023-04-15T15:30:13;8.30;99.90
53282;DHT22;39167;52.794;6.892;2023-04-15T15:32:40;8.10;99.90
53282;DHT22;39167;52.794;6.892;2023-04-15T15:35:07;8.10;99.90
53282;DHT22;39167;52.794;6.892;2023-04-15T15:37:34;8.10;99.90
53282;DHT22;39167;52.794;6.892;2023-04-15T15:40:00;8.10;99.90
53282;DHT22;39167;52.794;6.892;2023-04-15T15:42:30;8.10;99.90
53282;DHT22;39167;52.794;6.892;2023-04-15T15:44:56;8.10;99.90
53282;DHT22;39167;52.794;6.892;2023-04-15T15:47:22;8.10;99.90
53282;DHT22;39167;52.794;6.892;2023-04-15T15:49:48;8.00;99.90
53282;DHT22;39167;52.794;6.892;2023-04-15T15:52:13;8.10;99.90
53282;DHT22;39167;52.794;6.892;2023-04-15T15:54:40;8.00;99.90
53282;DHT22;39167;52.794;6.892;2023-04-15T15:57:06;8.00;99.90
53282;DHT22;39167;52.794;6.892;2023-04-15T15:59:32;8.00;99.90
53282;DHT22;39167;52.794;6.892;2023-04-15T16:01:59;8.00;99.90
53282;DHT22;39167;52.794;6.892;2023-04-15T16:04:25;7.90;99.90
53282;DHT22;39167;52.794;6.892;2023-04-15T16:06:51;7.90;99.90